createdAt,value
2018-08-18T00:02:03.457Z,16.03
2018-08-18T00:04:32.146Z,17.13
2018-08-18T00:07:00.154Z,17.03
2018-08-18T00:09:27.464Z,16.07
2018-08-18T00:11:54.947Z,17.43
2018-08-18T00:14:22.384Z,15.50
2018-08-18T00:16:49.701Z,16.23
2018-08-18T00:19:19.364Z,15.47
2018-08-18T00:21:46.644Z,14.13
2018-08-18T00:24:13.944Z,14.27
2018-08-18T00:26:41.189Z,13.70
2018-08-18T00:29:09.469Z,12.63
2018-08-18T00:31:39.793Z,12.77
2018-08-18T00:34:07.211Z,14.30
2018-08-18T00:36:34.534Z,12.90
2018-08-18T00:39:01.860Z,11.77
2018-08-18T00:41:30.217Z,12.63
2018-08-18T00:43:58.431Z,13.47
2018-08-18T00:46:27.062Z,12.00
2018-08-18T00:48:54.369Z,12.83
2018-08-18T00:51:26.373Z,16.03
2018-08-18T00:53:53.723Z,14.77
2018-08-18T00:56:20.994Z,14.27
2018-08-18T00:58:50.281Z,17.40
2018-08-18T01:01:17.866Z,17.30
2018-08-18T01:03:50.848Z,15.53
2018-08-18T01:06:19.563Z,16.63
2018-08-18T01:08:47.567Z,17.40
2018-08-18T01:11:15.730Z,17.00
2018-08-18T01:13:43.071Z,17.07
2018-08-18T01:16:10.274Z,17.80
2018-08-18T01:18:37.531Z,18.20
2018-08-18T01:21:05.153Z,17.00
2018-08-18T01:23:32.762Z,19.03
2018-08-18T01:26:00.018Z,16.93
2018-08-18T01:28:27.307Z,17.13
2018-08-18T01:31:06.352Z,16.30
2018-08-18T01:33:35.321Z,18.07
2018-08-18T01:36:02.793Z,17.20
2018-08-18T01:38:30.736Z,17.13
2018-08-18T01:41:12.054Z,18.97
2018-08-18T01:43:39.348Z,17.67
2018-08-18T01:46:06.653Z,18.40
2018-08-18T01:48:33.963Z,17.30
2018-08-18T01:51:21.273Z,18.67
2018-08-18T01:53:48.904Z,15.80
2018-08-18T01:56:17.196Z,17.63
2018-08-18T01:58:44.454Z,16.13
2018-08-18T02:01:11.760Z,17.80
2018-08-18T02:03:39.010Z,16.37
2018-08-18T02:06:06.384Z,16.20
2018-08-18T02:09:05.980Z,17.40
2018-08-18T02:11:33.292Z,16.87
2018-08-18T02:14:01.232Z,19.00
2018-08-18T02:16:28.485Z,17.43
2018-08-18T02:18:55.760Z,17.07
2018-08-18T02:21:34.356Z,15.70
2018-08-18T02:24:03.606Z,16.53
2018-08-18T02:26:31.864Z,16.80
2018-08-18T02:28:59.481Z,16.93
2018-08-18T02:31:26.750Z,18.30
2018-08-18T02:33:54.578Z,18.50
2018-08-18T02:36:21.880Z,17.07
2018-08-18T02:38:52.607Z,17.83
2018-08-18T02:41:19.875Z,19.13
2018-08-18T02:43:47.124Z,19.50
2018-08-18T02:46:30.761Z,19.13
2018-08-18T02:48:58.513Z,19.00
2018-08-18T02:51:25.815Z,20.33
2018-08-18T02:53:53.149Z,19.40
2018-08-18T02:56:21.510Z,19.17
2018-08-18T02:58:53.334Z,18.90
2018-08-18T03:01:25.166Z,18.87
2018-08-18T03:03:52.459Z,19.50
2018-08-18T03:06:20.036Z,20.80
2018-08-18T03:08:47.384Z,20.63
2018-08-18T03:11:14.696Z,21.57
2018-08-18T03:13:41.957Z,22.07
2018-08-18T03:16:10.519Z,20.90
2018-08-18T03:18:41.131Z,20.73
2018-08-18T03:21:08.373Z,20.43
2018-08-18T03:23:35.653Z,21.07
2018-08-18T03:26:03.201Z,21.83
2018-08-18T03:28:36.205Z,21.50
2018-08-18T03:31:04.318Z,20.50
2018-08-18T03:33:31.616Z,21.37
2018-08-18T03:35:58.937Z,18.53
2018-08-18T03:38:26.241Z,19.10
2018-08-18T03:40:53.558Z,18.67
2018-08-18T03:43:20.874Z,18.50
2018-08-18T03:45:48.188Z,20.20
2018-08-18T03:48:15.401Z,20.33
2018-08-18T03:50:47.901Z,22.07
2018-08-18T03:53:18.302Z,21.33
2018-08-18T03:55:45.682Z,19.33
2018-08-18T03:59:37.410Z,21.90
2018-08-18T04:02:04.824Z,20.30
2018-08-18T04:04:34.226Z,21.03
2018-08-18T04:07:02.177Z,20.80
2018-08-18T04:09:30.595Z,22.43
2018-08-18T04:11:59.080Z,22.77
2018-08-18T04:14:32.099Z,21.87
2018-08-18T04:16:59.403Z,22.53
2018-08-18T04:19:26.653Z,21.20
2018-08-18T04:21:54.610Z,22.23
2018-08-18T04:24:24.495Z,21.80
2018-08-18T04:26:51.819Z,21.20
2018-08-18T04:29:20.533Z,21.63
2018-08-18T04:31:47.903Z,21.40
2018-08-18T04:34:16.395Z,22.50
2018-08-18T04:36:43.717Z,20.37
2018-08-18T04:39:11.908Z,23.80
2018-08-18T04:41:39.540Z,20.43
2018-08-18T04:44:06.975Z,22.50
2018-08-18T04:46:34.281Z,22.17
2018-08-18T04:49:01.819Z,21.63
2018-08-18T04:51:29.142Z,22.80
2018-08-18T04:53:56.457Z,21.00
2018-08-18T04:56:23.723Z,20.87
2018-08-18T04:58:50.981Z,20.63
2018-08-18T05:01:18.232Z,20.23
2018-08-18T05:04:06.194Z,21.43
2018-08-18T05:06:34.146Z,20.20
2018-08-18T05:09:03.735Z,23.60
2018-08-18T05:11:31.086Z,20.43
2018-08-18T05:13:58.645Z,23.73
2018-08-18T05:16:25.961Z,22.40
2018-08-18T05:18:53.546Z,22.30
2018-08-18T05:21:21.997Z,22.03
2018-08-18T05:23:49.345Z,20.93
2018-08-18T05:26:16.632Z,20.20
2018-08-18T05:28:44.074Z,20.83
2018-08-18T05:31:11.287Z,22.30
2018-08-18T05:33:38.607Z,20.57
2018-08-18T05:36:06.169Z,20.20
2018-08-18T05:38:33.476Z,20.40
2018-08-18T05:41:00.848Z,20.20
2018-08-18T05:43:28.096Z,20.77
2018-08-18T05:45:55.277Z,21.60
2018-08-18T05:48:22.585Z,19.10
2018-08-18T05:50:49.838Z,19.40
2018-08-18T05:53:22.201Z,20.20
2018-08-18T05:55:49.936Z,21.87
2018-08-18T05:58:17.182Z,22.40
2018-08-18T06:00:44.696Z,20.47
2018-08-18T06:03:15.973Z,19.93
2018-08-18T06:05:43.276Z,20.80
2018-08-18T06:08:10.503Z,21.73
2018-08-18T06:10:37.737Z,21.00
2018-08-18T06:13:11.516Z,21.20
2018-08-18T06:15:39.864Z,21.00
2018-08-18T06:18:07.157Z,21.20
2018-08-18T06:20:34.463Z,21.90
2018-08-18T06:23:01.915Z,22.00
2018-08-18T06:25:29.153Z,19.83
2018-08-18T06:27:56.412Z,19.90
2018-08-18T06:30:23.676Z,20.77
2018-08-18T06:32:51.559Z,21.00
2018-08-18T06:35:18.771Z,19.83
2018-08-18T06:38:03.016Z,19.80
2018-08-18T06:40:30.334Z,20.63
2018-08-18T06:42:57.556Z,20.00
2018-08-18T06:45:24.798Z,17.30
2018-08-18T06:47:52.567Z,22.80
2018-08-18T06:50:21.356Z,19.90
2018-08-18T06:52:48.677Z,20.83
2018-08-18T06:55:18.369Z,20.20
2018-08-18T06:57:51.994Z,21.27
2018-08-18T07:00:22.563Z,22.50
2018-08-18T07:02:49.968Z,19.60
2018-08-18T07:05:18.219Z,18.83
2018-08-18T07:07:46.325Z,21.57
2018-08-18T07:10:28.799Z,19.47
2018-08-18T07:12:57.547Z,21.03
2018-08-18T07:15:26.507Z,18.90
2018-08-18T07:17:53.737Z,18.40
2018-08-18T07:20:21.537Z,17.77
2018-08-18T07:22:49.359Z,19.17
2018-08-18T07:25:17.318Z,20.57
2018-08-18T07:27:44.632Z,19.17
2018-08-18T07:30:12.457Z,18.03
2018-08-18T07:32:39.713Z,18.23
2018-08-18T07:35:06.992Z,19.23
2018-08-18T07:37:34.324Z,17.60
2018-08-18T07:40:01.530Z,16.80
2018-08-18T07:42:29.412Z,16.67
2018-08-18T07:44:56.879Z,17.53
2018-08-18T07:47:29.602Z,16.90
2018-08-18T07:49:57.043Z,15.93
2018-08-18T07:52:24.309Z,15.93
2018-08-18T07:54:51.611Z,17.77
2018-08-18T07:57:18.877Z,21.20
2018-08-18T07:59:46.201Z,17.90
2018-08-18T08:02:13.555Z,15.90
2018-08-18T08:04:41.056Z,16.60
2018-08-18T08:07:08.810Z,16.93
2018-08-18T08:09:36.113Z,15.30
2018-08-18T08:12:03.446Z,15.90
2018-08-18T08:14:30.698Z,14.77
2018-08-18T08:16:58.020Z,15.07
2018-08-18T08:19:26.259Z,14.37
2018-08-18T08:21:53.570Z,13.97
2018-08-18T08:24:20.837Z,14.30
2018-08-18T08:26:48.248Z,12.90
2018-08-18T08:29:15.560Z,13.03
2018-08-18T08:31:42.767Z,14.40
2018-08-18T08:34:11.124Z,14.00
2018-08-18T08:36:38.570Z,13.40
2018-08-18T08:39:05.982Z,12.67
2018-08-18T08:41:34.309Z,14.53
2018-08-18T08:44:01.555Z,13.60
2018-08-18T08:46:28.928Z,14.83
2018-08-18T08:48:58.918Z,11.50
2018-08-18T08:51:26.409Z,13.20
2018-08-18T08:53:54.408Z,13.23
2018-08-18T08:56:53.040Z,12.10
2018-08-18T08:59:20.374Z,13.17
2018-08-18T09:01:47.634Z,14.10
2018-08-18T09:04:15.252Z,12.20
2018-08-18T09:06:48.064Z,12.33
2018-08-18T09:09:15.381Z,12.97
2018-08-18T09:11:42.769Z,11.70
2018-08-18T09:14:10.049Z,10.50
2018-08-18T09:16:37.573Z,10.87
2018-08-18T09:19:04.975Z,10.77
2018-08-18T09:21:39.223Z,10.47
2018-08-18T09:24:06.707Z,11.47
2018-08-18T09:26:38.624Z,11.90
2018-08-18T09:29:07.474Z,12.60
2018-08-18T09:31:34.788Z,9.87
2018-08-18T09:34:02.185Z,10.70
2018-08-18T09:36:30.195Z,8.93
2018-08-18T09:38:57.704Z,8.37
2018-08-18T09:41:25.533Z,9.33
2018-08-18T09:43:53.027Z,9.80
2018-08-18T09:46:20.867Z,9.53
2018-08-18T09:48:48.863Z,10.30
2018-08-18T09:51:16.287Z,8.40
2018-08-18T09:53:43.626Z,9.07
2018-08-18T09:56:12.125Z,9.63
2018-08-18T09:58:39.717Z,8.60
2018-08-18T10:01:08.259Z,8.40
2018-08-18T10:03:36.463Z,9.47
2018-08-18T10:06:04.945Z,7.90
2018-08-18T10:08:33.023Z,8.40
2018-08-18T10:11:00.866Z,7.10
2018-08-18T10:13:28.674Z,7.30
2018-08-18T10:15:57.507Z,8.50
2018-08-18T10:18:26.614Z,9.70
2018-08-18T10:20:55.133Z,7.77
2018-08-18T10:23:22.498Z,7.20
2018-08-18T10:25:49.862Z,9.13
2018-08-18T10:28:18.692Z,5.53
2018-08-18T10:30:46.146Z,6.50
2018-08-18T10:33:14.154Z,7.47
2018-08-18T10:35:42.881Z,7.20
2018-08-18T10:38:10.662Z,7.57
2018-08-18T10:40:38.579Z,7.20
2018-08-18T10:43:06.015Z,7.60
2018-08-18T10:45:33.440Z,5.50
2018-08-18T10:48:01.024Z,6.80
2018-08-18T10:50:40.567Z,6.63
2018-08-18T10:53:07.838Z,6.10
2018-08-18T10:55:35.124Z,11.70
2018-08-18T10:58:08.031Z,7.00
2018-08-18T11:00:35.533Z,6.30
2018-08-18T11:03:04.266Z,5.90
2018-08-18T11:05:31.715Z,7.00
2018-08-18T11:08:05.560Z,6.40
2018-08-18T11:10:35.232Z,7.10
2018-08-18T11:13:03.170Z,6.43
2018-08-18T11:15:32.120Z,6.13
2018-08-18T11:18:00.478Z,5.90
2018-08-18T11:20:29.285Z,5.60
2018-08-18T11:23:02.458Z,6.07
2018-08-18T11:25:35.033Z,5.70
2018-08-18T11:28:02.842Z,5.10
2018-08-18T11:30:30.803Z,5.57
2018-08-18T11:32:59.013Z,5.80
2018-08-18T11:35:27.351Z,7.00
2018-08-18T11:37:56.080Z,5.37
2018-08-18T11:40:24.244Z,5.53
2018-08-18T11:42:53.942Z,6.30
2018-08-18T11:45:23.091Z,5.50
2018-08-18T11:47:57.881Z,5.10
2018-08-18T11:50:26.567Z,5.90
2018-08-18T11:52:54.003Z,6.63
2018-08-18T11:55:22.488Z,6.10
2018-08-18T11:57:50.184Z,5.30
2018-08-18T12:00:18.293Z,5.27
2018-08-18T12:02:45.667Z,7.33
2018-08-18T12:05:13.119Z,5.23
2018-08-18T12:07:40.569Z,4.83
2018-08-18T12:10:07.951Z,4.80
2018-08-18T12:12:35.311Z,6.50
2018-08-18T12:15:02.857Z,5.40
2018-08-18T12:17:30.671Z,5.80
2018-08-18T12:20:02.465Z,5.30
2018-08-18T12:22:30.172Z,4.63
2018-08-18T12:24:59.280Z,5.40
2018-08-18T12:27:27.604Z,5.10
2018-08-18T12:29:55.387Z,4.40
2018-08-18T12:32:26.838Z,5.37
2018-08-18T12:34:55.596Z,5.70
2018-08-18T12:37:26.869Z,6.43
2018-08-18T12:39:55.315Z,5.23
2018-08-18T12:42:25.592Z,5.53
2018-08-18T12:44:53.484Z,5.07
2018-08-18T12:47:21.020Z,5.10
2018-08-18T12:49:48.422Z,4.77
2018-08-18T12:52:15.890Z,4.50
2018-08-18T12:54:43.868Z,3.80
2018-08-18T12:57:11.183Z,4.37
2018-08-18T12:59:38.601Z,5.00
2018-08-18T13:02:06.037Z,4.63
2018-08-18T13:04:33.467Z,5.47
2018-08-18T13:07:00.799Z,4.40
2018-08-18T13:09:28.083Z,4.40
2018-08-18T13:11:56.664Z,5.00
2018-08-18T13:14:26.242Z,4.03
2018-08-18T13:16:53.550Z,4.27
2018-08-18T13:19:23.073Z,4.00
2018-08-18T13:21:50.459Z,4.70
2018-08-18T13:24:17.968Z,4.17
2018-08-18T13:26:45.163Z,4.47
2018-08-18T13:29:12.475Z,3.57
2018-08-18T13:31:42.480Z,4.80
2018-08-18T13:34:11.625Z,3.80
2018-08-18T13:36:40.101Z,5.30
2018-08-18T13:39:09.602Z,4.70
2018-08-18T13:41:36.906Z,4.90
2018-08-18T13:44:04.150Z,4.73
2018-08-18T13:46:43.112Z,4.50
2018-08-18T13:49:10.355Z,3.80
2018-08-18T13:51:37.665Z,4.80
2018-08-18T13:54:04.977Z,4.70
2018-08-18T13:56:32.315Z,6.07
2018-08-18T13:58:59.625Z,5.70
2018-08-18T14:01:44.877Z,4.50
2018-08-18T14:04:20.890Z,4.83
2018-08-18T14:06:51.504Z,5.60
2018-08-18T14:09:18.944Z,5.33
2018-08-18T14:11:46.375Z,4.93
2018-08-18T14:14:13.633Z,5.27
2018-08-18T14:16:40.981Z,4.40
2018-08-18T14:19:08.317Z,4.57
2018-08-18T14:21:35.594Z,4.50
2018-08-18T14:24:02.958Z,4.40
2018-08-18T14:26:30.224Z,4.97
2018-08-18T14:28:57.576Z,4.20
2018-08-18T14:31:24.822Z,5.27
2018-08-18T14:33:52.342Z,5.10
2018-08-18T14:36:21.585Z,4.40
2018-08-18T14:38:48.920Z,4.50
2018-08-18T14:41:37.276Z,4.33
2018-08-18T14:44:04.857Z,4.90
2018-08-18T14:46:32.477Z,4.30
2018-08-18T14:48:59.947Z,4.13
2018-08-18T14:51:27.318Z,4.10
2018-08-18T14:53:55.923Z,4.60
2018-08-18T14:56:23.659Z,4.50
2018-08-18T14:58:51.274Z,4.67
2018-08-18T15:01:18.676Z,4.80
2018-08-18T15:03:45.989Z,5.70
2018-08-18T15:06:13.336Z,4.70
2018-08-18T15:08:40.841Z,4.73
2018-08-18T15:11:09.580Z,5.53
2018-08-18T15:13:36.905Z,21.23
2018-08-18T15:16:04.431Z,4.80
2018-08-18T15:18:31.808Z,4.90
2018-08-18T15:20:59.339Z,5.03
2018-08-18T15:23:26.901Z,4.50
2018-08-18T15:25:54.244Z,5.17
2018-08-18T15:28:21.606Z,4.53
2018-08-18T15:30:50.344Z,5.20
2018-08-18T15:33:19.846Z,4.87
2018-08-18T15:35:47.145Z,5.13
2018-08-18T15:38:14.553Z,5.33
2018-08-18T15:40:41.915Z,5.50
2018-08-18T15:43:09.493Z,6.17
2018-08-18T15:45:59.349Z,5.30
2018-08-18T15:48:26.909Z,5.30
2018-08-18T15:50:54.193Z,5.80
2018-08-18T15:53:43.156Z,4.80
2018-08-18T15:56:10.481Z,6.20
2018-08-18T15:58:39.649Z,5.37
2018-08-18T16:01:08.569Z,4.63
2018-08-18T16:03:37.865Z,5.63
2018-08-18T16:06:05.260Z,5.50
2018-08-18T16:08:32.472Z,5.70
2018-08-18T16:11:08.277Z,5.10
2018-08-18T16:13:46.533Z,4.93
2018-08-18T16:16:22.223Z,4.80
2018-08-18T16:18:54.378Z,5.10
2018-08-18T16:21:22.372Z,6.00
2018-08-18T16:23:52.092Z,5.17
2018-08-18T16:26:19.355Z,5.40
2018-08-18T16:28:46.660Z,5.23
2018-08-18T16:31:14.055Z,5.20
2018-08-18T16:33:41.708Z,5.10
2018-08-18T16:36:09.195Z,5.80
2018-08-18T16:38:36.457Z,5.50
2018-08-18T16:41:03.849Z,5.10
2018-08-18T16:43:33.150Z,5.33
2018-08-18T16:46:17.641Z,6.07
2018-08-18T16:48:44.977Z,5.10
2018-08-18T16:51:12.301Z,12.33
2018-08-18T16:53:39.572Z,5.57
2018-08-18T16:56:12.368Z,6.07
2018-08-18T16:58:43.505Z,5.00
2018-08-18T17:01:10.703Z,5.40
2018-08-18T17:03:38.087Z,5.77
2018-08-18T17:06:05.316Z,5.77
2018-08-18T17:08:32.680Z,5.00
2018-08-18T17:10:59.927Z,6.10
2018-08-18T17:13:29.302Z,6.33
2018-08-18T17:15:57.999Z,5.10
2018-08-18T17:18:26.960Z,6.00
2018-08-18T17:20:58.045Z,5.60
2018-08-18T17:23:26.742Z,5.80
2018-08-18T17:25:54.162Z,5.80
2018-08-18T17:28:21.525Z,5.67
2018-08-18T17:30:50.988Z,5.87
2018-08-18T17:33:19.418Z,6.07
2018-08-18T17:35:47.052Z,5.53
2018-08-18T17:38:14.433Z,6.13
2018-08-18T17:40:41.676Z,5.50
2018-08-18T17:43:09.045Z,5.37
2018-08-18T17:45:41.133Z,5.73
2018-08-18T17:48:08.477Z,5.77
2018-08-18T17:50:36.635Z,6.03
2018-08-18T17:53:04.620Z,5.37
2018-08-18T17:55:31.941Z,6.10
2018-08-18T17:57:59.214Z,5.30
2018-08-18T18:00:26.639Z,6.10
2018-08-18T18:02:56.643Z,5.77
2018-08-18T18:05:26.248Z,5.93
2018-08-18T18:07:56.168Z,7.17
2018-08-18T18:10:24.816Z,6.93
2018-08-18T18:12:52.087Z,6.27
2018-08-18T18:15:31.393Z,6.63
2018-08-18T18:17:58.690Z,5.90
2018-08-18T18:20:27.359Z,5.77
2018-08-18T18:22:54.701Z,6.47
2018-08-18T18:25:22.026Z,6.20
2018-08-18T18:27:49.741Z,5.77
2018-08-18T18:30:19.890Z,6.23
2018-08-18T18:32:47.178Z,6.47
2018-08-18T18:35:14.522Z,6.20
2018-08-18T18:37:41.801Z,6.00
2018-08-18T18:40:10.602Z,5.70
2018-08-18T18:42:37.858Z,5.87
2018-08-18T18:45:06.973Z,5.90
2018-08-18T18:47:34.237Z,5.67
2018-08-18T18:50:01.469Z,5.90
2018-08-18T18:52:28.715Z,6.47
2018-08-18T18:54:56.467Z,5.93
2018-08-18T18:57:24.188Z,6.53
2018-08-18T18:59:56.618Z,7.23
2018-08-18T19:02:25.213Z,6.60
2018-08-18T19:04:52.573Z,5.33
2018-08-18T19:07:19.991Z,6.23
2018-08-18T19:09:48.166Z,6.63
2018-08-18T19:12:16.076Z,6.03
2018-08-18T19:14:43.358Z,4.70
2018-08-18T19:17:10.728Z,6.33
2018-08-18T19:19:38.668Z,7.10
2018-08-18T19:22:08.952Z,6.90
2018-08-18T19:24:36.224Z,6.27
2018-08-18T19:27:03.568Z,7.70
2018-08-18T19:29:30.818Z,6.30
2018-08-18T19:31:59.195Z,6.03
2018-08-18T19:34:26.595Z,6.67
2018-08-18T19:37:07.308Z,6.30
2018-08-18T19:39:35.519Z,7.57
2018-08-18T19:42:09.573Z,6.83
2018-08-18T19:44:40.747Z,7.13
2018-08-18T19:47:08.221Z,7.00
2018-08-18T19:49:41.175Z,6.30
2018-08-18T19:52:10.752Z,6.40
2018-08-18T19:54:38.885Z,6.87
2018-08-18T19:57:06.126Z,6.40
2018-08-18T19:59:33.422Z,8.20
2018-08-18T20:02:00.830Z,8.30
2018-08-18T20:04:28.039Z,7.00
2018-08-18T20:06:55.283Z,6.87
2018-08-18T20:09:22.560Z,7.13
2018-08-18T20:11:49.855Z,7.43
2018-08-18T20:14:17.074Z,7.93
2018-08-18T20:16:44.348Z,6.90
2018-08-18T20:19:11.620Z,8.03
2018-08-18T20:21:38.917Z,8.57
2018-08-18T20:24:06.252Z,9.43
2018-08-18T20:26:33.508Z,7.97
2018-08-18T20:29:00.781Z,8.60
2018-08-18T20:31:28.136Z,9.47
2018-08-18T20:33:55.355Z,7.67
2018-08-18T20:36:22.731Z,7.87
2018-08-18T20:39:03.064Z,8.30
2018-08-18T20:41:30.866Z,7.13
2018-08-18T20:43:58.146Z,7.17
2018-08-18T20:46:25.453Z,7.30
2018-08-18T20:48:52.938Z,11.10
2018-08-18T20:51:25.751Z,10.70
2018-08-18T20:56:15.118Z,7.40
2018-08-18T20:58:42.453Z,8.67
2018-08-18T21:01:09.972Z,7.80
2018-08-18T21:03:47.119Z,7.73
2018-08-18T21:06:15.521Z,8.00
2018-08-18T21:08:42.808Z,7.13
2018-08-18T21:11:10.210Z,6.80
2018-08-18T21:13:38.060Z,6.60
2018-08-18T21:16:05.302Z,7.03
2018-08-18T21:18:32.646Z,7.07
2018-08-18T21:21:00.159Z,8.23
2018-08-18T21:23:27.653Z,7.33
2018-08-18T21:25:54.966Z,7.33
2018-08-18T21:28:25.267Z,7.77
2018-08-18T21:30:52.657Z,6.80
2018-08-18T21:33:19.993Z,7.03
2018-08-18T21:35:47.205Z,6.90
2018-08-18T21:38:14.502Z,6.60
2018-08-18T21:40:42.119Z,7.60
2018-08-18T21:43:43.352Z,7.77
2018-08-18T21:46:10.707Z,7.20
2018-08-18T21:48:47.182Z,8.00
2018-08-18T21:51:14.571Z,8.07
2018-08-18T21:53:42.654Z,7.90
2018-08-18T21:56:10.095Z,6.57
2018-08-18T21:58:37.413Z,7.30
2018-08-18T22:01:10.807Z,6.60
2018-08-18T22:03:38.101Z,7.33
2018-08-18T22:06:05.445Z,7.20
2018-08-18T22:08:32.816Z,7.10
2018-08-18T22:11:00.129Z,6.90
2018-08-18T22:13:27.543Z,7.03
2018-08-18T22:15:54.946Z,7.00
2018-08-18T22:18:22.264Z,7.73
2018-08-18T22:20:49.578Z,7.13
2018-08-18T22:23:16.918Z,7.03
2018-08-18T22:25:44.236Z,6.70
2018-08-18T22:28:11.504Z,7.00
2018-08-18T22:30:38.844Z,6.87
2018-08-18T22:33:06.580Z,7.17
2018-08-18T22:35:34.344Z,7.30
2018-08-18T22:38:01.603Z,7.30
2018-08-18T22:40:29.003Z,5.60
2018-08-18T22:42:56.384Z,7.23
2018-08-18T22:45:27.410Z,6.50
2018-08-18T22:47:54.878Z,6.87
2018-08-18T22:50:22.162Z,7.03
2018-08-18T22:52:50.716Z,4.90
2018-08-18T22:55:18.181Z,6.00
2018-08-18T22:57:51.122Z,6.00
2018-08-18T23:00:18.488Z,6.23
2018-08-18T23:02:46.063Z,6.07
2018-08-18T23:05:13.470Z,6.60
2018-08-18T23:07:41.255Z,5.70
2018-08-18T23:10:09.324Z,6.10
2018-08-18T23:12:36.643Z,5.80
2018-08-18T23:15:04.410Z,5.37
2018-08-18T23:17:31.756Z,5.70
2018-08-18T23:19:59.073Z,6.00
2018-08-18T23:23:09.724Z,5.73
2018-08-18T23:25:37.009Z,6.10
2018-08-18T23:28:04.359Z,5.33
2018-08-18T23:30:39.171Z,5.27
2018-08-18T23:33:08.052Z,5.33
2018-08-18T23:35:35.451Z,5.67
2018-08-18T23:38:03.177Z,6.20
2018-08-18T23:40:30.749Z,5.90
2018-08-18T23:42:58.117Z,6.30
2018-08-18T23:45:36.199Z,6.50
2018-08-18T23:48:05.516Z,5.80
2018-08-18T23:50:33.148Z,6.40
2018-08-18T23:53:02.829Z,6.90
2018-08-18T23:55:30.540Z,6.73
2018-08-18T23:57:58.558Z,6.10
